CLMO2: North Canadian River

                                SHEF ID:       CLMO2     North Canadian River near Calume
STATION TYPE:
Regulating: Stage = 12.00, Flow = 1420

STAGE STAGE(2) RIV-FLOW WTR-TEMP DIS-OXY PH CONDUCT BAT-LOAD
ft ft cfs F mg/l su umho/cm volt
Ccp-Rev Ccp-Rev Ccp-Rev Ccp-Rev Ccp-Rev Ccp-Rev Ccp-Rev Ccp-Rev
(America/Chicago)
04/29 00:00 3.63 ---- 22 69.53 7.26 8.46 1442 12.65
04/29 01:00 3.63 ---- 22 68.31 7.26 8.43 1445 12.67
04/29 02:00 3.63 ---- 22 67.23 7.29 8.41 1447 12.60
04/29 03:00 3.63 ---- 22 66.24 7.36 8.39 1451 12.63
04/29 04:00 3.63 ---- 22 65.34 7.41 8.39 1454 12.54
04/29 05:00 3.63 ---- 22 64.36 7.52 8.38 1456 12.58
04/29 06:00 3.63 ---- 22 63.39 7.64 8.37 1459 12.50
04/29 07:00 3.63 ---- 22 62.44 7.68 8.37 1461 12.53
04/29 08:00 3.63 ---- 22 61.59 8.19 8.39 1462 12.46
04/29 09:00 3.63 ---- 22 61.41 8.76 8.42 1464 12.56
04/29 10:00 3.64 ---- 23 62.49 9.46 8.46 1464 12.57
04/29 11:00 3.64 ---- 23 63.82 9.99 8.48 1465 12.70
04/29 12:00 3.64 ---- 23 65.71 10.43 8.51 1465 13.05
04/29 13:00 3.64 ---- 23 68.34 10.65 8.50 1465 12.99
04/29 14:00 3.64 ---- 23 71.17 10.80 8.52 1466 13.16
04/29 15:00 3.64 ---- 23 73.71 10.86 8.52 1466 13.13
04/29 16:00 3.64 ---- 23 76.06 10.76 8.53 1465 13.06
04/29 17:00 3.62 ---- 22 77.20 10.57 8.52 1446 13.02
04/29 18:00 3.63 ---- 22 76.89 10.03 8.51 1456 13.03
04/29 19:00 3.62 ---- 22 75.69 9.34 8.50 1459 12.96
04/29 20:00 3.62 ---- 22 74.08 8.57 8.49 1446 12.90
04/29 21:00 3.61 ---- 21 72.73 7.86 8.47 1444 12.89
04/29 22:00 3.61 ---- 21 71.53 7.50 8.45 1440 12.73
04/29 23:00 3.61 ---- 21 70.38 7.28 8.43 1435 12.73
Data processed at Thu 30Apr2026 04:25 GMT

NOTICE: If you are parsing this page

Please convert to using our Data API. Starting early 2026 we will be migrating to: https://water.usace.army.mil with modern pages rendered in JavaScript. When this migration completes you will no longer be able to scrape this page! CWMSDataAPI (CDA)

Timeseries IDs (TSIDs)

TSIDs used from left to right in the data table
CALU.Stage.Inst.1Hour.0.Ccp-Rev
CALU.Stage-Alt.Inst.1Hour.0.Ccp-Rev
CALU.Flow.Inst.1Hour.0.Ccp-Rev
CALU.Temp-Water.Inst.1Hour.0.Ccp-Rev
CALU.Conc-DO.Inst.1Hour.0.Ccp-Rev
CALU.pH.Inst.1Hour.0.Ccp-Rev
CALU.Cond-Water.Inst.1Hour.0.Ccp-Rev
CALU.Volt-Battery Load.Inst.1Hour.0.Ccp-Rev

                            

All information presented herein is the property of the government of the United States of America and may be revised or deleted at any time without prior notice. Dissemination of this information without the expressed written consent of the Public Affairs Office, Tulsa District U.S. Army Corps of Engineers is strictly prohibited. These data are gathered electronically and, as presented, have NOT undergone any form of quality control. These data are NOT guaranteed to be valid or correct.